Aviation Digital Data Service (ADDS)

Output produced by METARs form (0954 UTC 19 November 2018)
found at http://www.aviationweather.gov/metar/data/
 
RJSK 190900Z 31009KT 9999 FEW020 BKN045 08/03 Q1016
TAF RJSK 190505Z 1906/2012 30010KT 9999 FEW020 BKN040 
     TEMPO 1906/1909 30015G25KT 
     BECMG 1913/1915 13003KT 
     BECMG 2000/2003 30005KT 
     TEMPO 2006/2009 4000 SHRA BR 
     BECMG 2009/2012 13004KT